Time;durP1;ratioP1;P1;durP2;ratioP2;P2;SDS_P1;SDS_P2;PMS_P1;PMS_P2;Temp;Humidity;BMP_temperature;BMP_pressure;BME280_temperature;BME280_humidity;BME280_pressure;Samples;Min_cycle;Max_cycle;Signal;HPM_P1;HPM_P2
2021/12/01 00:01:46;;;;;;;;;11.00;11.00;17.50;99.90;;;;;;5056820;28;10775;-55
2021/12/01 00:04:18;;;;;;;;;11.00;11.00;17.50;99.90;;;;;;5056936;28;10629;-53
2021/12/01 00:06:48;;;;;;;;;13.75;13.75;17.50;99.90;;;;;;5062697;28;10519;-54
2021/12/01 00:09:20;;;;;;;;;9.25;9.25;17.50;99.90;;;;;;5061513;28;10742;-51
2021/12/01 00:11:50;;;;;;;;;11.50;11.50;17.60;99.90;;;;;;5058074;28;10719;-54
2021/12/01 00:14:22;;;;;;;;;7.50;7.50;17.50;99.90;;;;;;5062091;28;10763;-52
2021/12/01 00:16:53;;;;;;;;;10.00;10.00;17.60;99.90;;;;;;5064649;28;10422;-52
2021/12/01 00:19:24;;;;;;;;;6.25;5.00;17.60;99.90;;;;;;5066925;28;10455;-52
2021/12/01 00:21:57;;;;;;;;;10.75;10.75;17.60;99.90;;;;;;5067938;28;10550;-53
2021/12/01 00:24:28;;;;;;;;;7.25;7.25;17.50;99.90;;;;;;5061730;28;10535;-54
2021/12/01 00:26:59;;;;;;;;;9.50;9.50;17.60;99.90;;;;;;5061483;28;11213;-53
2021/12/01 00:29:31;;;;;;;;;11.25;11.25;17.60;99.90;;;;;;5060648;28;11154;-53
2021/12/01 00:32:04;;;;;;;;;14.00;14.00;17.50;99.90;;;;;;5063618;28;10796;-55
2021/12/01 00:34:36;;;;;;;;;14.00;14.00;17.50;99.90;;;;;;5060765;28;10669;-56
2021/12/01 00:37:07;;;;;;;;;15.50;14.50;17.50;99.90;;;;;;5060276;28;10714;-53
2021/12/01 00:39:37;;;;;;;;;15.75;15.75;17.50;99.90;;;;;;5061585;28;11031;-55
2021/12/01 00:42:07;;;;;;;;;14.75;14.75;17.50;99.90;;;;;;5065579;28;10848;-53
2021/12/01 00:44:45;;;;;;;;;15.25;15.25;17.50;99.90;;;;;;5060659;28;10723;-54
2021/12/01 00:47:15;;;;;;;;;12.75;12.75;17.50;99.90;;;;;;5056816;28;10867;-55
2021/12/01 00:49:47;;;;;;;;;12.25;12.25;17.50;99.90;;;;;;5061704;28;10894;-56
2021/12/01 00:52:17;;;;;;;;;12.00;12.00;17.50;99.90;;;;;;5061547;28;11110;-54
2021/12/01 00:54:48;;;;;;;;;10.50;10.00;17.50;99.90;;;;;;5060199;28;11567;-54
2021/12/01 00:57:19;;;;;;;;;8.50;8.50;17.50;99.90;;;;;;5061592;28;10931;-55
2021/12/01 00:59:49;;;;;;;;;5.00;5.00;17.40;99.90;;;;;;5065310;28;10547;-55
2021/12/01 01:02:20;;;;;;;;;11.50;11.50;17.40;99.90;;;;;;5061208;28;10543;-54
2021/12/01 01:04:50;;;;;;;;;7.00;7.00;17.40;99.90;;;;;;5064165;28;10663;-54
2021/12/01 01:07:21;;;;;;;;;8.25;8.25;17.40;99.90;;;;;;5061161;28;10359;-53
2021/12/01 01:09:52;;;;;;;;;8.00;8.00;17.40;99.90;;;;;;5060871;28;10494;-55
2021/12/01 01:18:08;;;;;;;;;8.50;8.50;17.40;99.90;;;;;;5067688;28;10469;-54
2021/12/01 01:20:41;;;;;;;;;7.25;7.25;17.30;99.90;;;;;;5059107;28;10455;-53
2021/12/01 01:23:11;;;;;;;;;10.00;10.00;17.30;99.90;;;;;;5063057;28;10491;-54
2021/12/01 01:25:43;;;;;;;;;9.25;9.25;17.30;99.90;;;;;;5058942;28;10713;-54
2021/12/01 01:28:14;;;;;;;;;8.00;8.00;17.30;99.90;;;;;;5062095;28;10700;-54
2021/12/01 01:30:44;;;;;;;;;9.00;9.00;17.20;99.90;;;;;;5058202;28;10659;-55
2021/12/01 01:33:16;;;;;;;;;9.75;8.25;17.20;99.90;;;;;;5065020;28;11008;-54
2021/12/01 01:35:48;;;;;;;;;9.00;8.00;17.20;99.90;;;;;;5056107;28;10989;-55
2021/12/01 01:38:19;;;;;;;;;8.00;8.00;17.10;99.90;;;;;;5063433;28;10962;-55
2021/12/01 01:40:50;;;;;;;;;6.75;6.75;17.20;99.90;;;;;;5058614;28;10861;-56
2021/12/01 01:43:21;;;;;;;;;9.75;9.75;17.10;99.90;;;;;;5066435;28;10968;-57
2021/12/01 01:45:57;;;;;;;;;6.00;6.00;17.10;99.90;;;;;;5059828;28;11427;-54
2021/12/01 01:48:32;;;;;;;;;9.00;9.00;17.10;99.90;;;;;;5062195;28;11349;-53
2021/12/01 01:51:07;;;;;;;;;6.00;6.00;17.10;99.90;;;;;;5065233;28;11092;-55
2021/12/01 01:53:36;;;;;;;;;9.25;8.75;17.10;99.90;;;;;;5058162;28;11414;-56
2021/12/01 01:56:08;;;;;;;;;9.00;9.00;17.00;99.90;;;;;;5056932;28;11502;-55
2021/12/01 01:58:39;;;;;;;;;12.75;12.00;17.00;99.90;;;;;;5061719;28;11487;-53
2021/12/01 02:01:22;;;;;;;;;29.75;27.00;17.00;99.90;;;;;;5062512;28;11638;-52
2021/12/01 02:03:54;;;;;;;;;26.00;26.00;17.00;99.90;;;;;;5057533;28;11549;-53
2021/12/01 02:06:25;;;;;;;;;28.50;27.50;16.90;99.90;;;;;;5063260;28;11567;-54
2021/12/01 02:08:58;;;;;;;;;25.25;25.25;16.90;99.90;;;;;;5061365;28;11551;-51
2021/12/01 02:11:30;;;;;;;;;30.00;29.75;16.90;99.90;;;;;;5061619;28;11643;-53
2021/12/01 02:14:02;;;;;;;;;31.00;29.50;16.80;99.90;;;;;;5059894;28;11618;-53
2021/12/01 02:16:34;;;;;;;;;31.25;30.25;16.80;99.90;;;;;;5064090;28;12206;-54
2021/12/01 02:19:05;;;;;;;;;30.50;30.00;16.80;99.90;;;;;;5060744;28;11692;-53
2021/12/01 02:21:36;;;;;;;;;29.00;29.00;16.80;99.90;;;;;;5044225;28;11556;-53
2021/12/01 02:24:09;;;;;;;;;29.25;29.00;16.70;99.90;;;;;;5063754;28;11692;-54
2021/12/01 02:26:44;;;;;;;;;27.75;27.75;16.70;99.90;;;;;;5061206;28;11607;-60
2021/12/01 02:29:18;;;;;;;;;31.00;29.50;16.70;99.90;;;;;;5064430;28;11541;-60
2021/12/01 02:31:50;;;;;;;;;28.75;28.75;16.60;99.90;;;;;;5061598;28;11586;-56
2021/12/01 02:34:24;;;;;;;;;28.75;27.50;16.60;99.90;;;;;;5062925;28;11578;-53
2021/12/01 02:36:57;;;;;;;;;28.25;28.25;16.60;99.90;;;;;;5060077;28;11531;-56
2021/12/01 02:39:31;;;;;;;;;30.00;29.75;16.60;99.90;;;;;;5062091;28;11573;-55
2021/12/01 02:42:08;;;;;;;;;28.25;28.25;16.60;99.90;;;;;;5057872;28;11544;-59
2021/12/01 02:44:38;;;;;;;;;25.25;25.25;16.60;99.90;;;;;;5062366;28;11531;-58
2021/12/01 02:47:09;;;;;;;;;28.50;26.75;16.50;99.90;;;;;;5058139;28;11571;-59
2021/12/01 02:49:40;;;;;;;;;20.75;20.75;16.50;99.90;;;;;;5065178;28;11819;-59
2021/12/01 02:52:13;;;;;;;;;17.50;17.50;16.50;99.90;;;;;;5059847;28;11744;-58
2021/12/01 02:54:44;;;;;;;;;15.25;15.25;16.50;99.90;;;;;;5061698;28;11711;-55
2021/12/01 02:57:16;;;;;;;;;15.00;15.00;16.50;99.90;;;;;;5059061;27;11598;-61
2021/12/01 02:59:47;;;;;;;;;15.00;15.00;16.50;99.90;;;;;;5063774;28;11509;-62
2021/12/01 03:02:17;;;;;;;;;15.75;14.00;16.50;99.90;;;;;;5059009;28;11285;-56
2021/12/01 03:04:48;;;;;;;;;17.00;15.25;16.40;99.90;;;;;;5049808;28;12523;-55
2021/12/01 03:07:20;;;;;;;;;15.50;15.50;16.40;99.90;;;;;;5062083;28;12271;-57
2021/12/01 03:09:51;;;;;;;;;14.50;14.50;16.40;99.90;;;;;;5063458;28;11643;-56
2021/12/01 03:12:21;;;;;;;;;14.75;14.75;16.40;99.90;;;;;;5059897;28;11500;-60
2021/12/01 03:14:52;;;;;;;;;18.25;18.25;16.40;99.90;;;;;;5062858;28;11550;-68
2021/12/01 03:17:25;;;;;;;;;18.00;18.00;16.30;99.90;;;;;;5056195;28;11496;-57
2021/12/01 03:19:57;;;;;;;;;15.75;15.75;16.30;99.90;;;;;;5058427;28;11512;-53
2021/12/01 03:22:28;;;;;;;;;15.00;15.00;16.30;99.90;;;;;;5068234;28;11467;-55
2021/12/01 03:25:00;;;;;;;;;17.50;16.00;16.30;99.90;;;;;;5057065;28;12381;-53
2021/12/01 03:27:31;;;;;;;;;17.75;15.75;16.20;99.90;;;;;;5055839;28;11484;-53
2021/12/01 03:30:01;;;;;;;;;14.25;14.00;16.10;99.90;;;;;;5060476;28;11540;-55
2021/12/01 03:32:33;;;;;;;;;16.75;16.50;16.10;99.90;;;;;;5060860;28;11520;-59
2021/12/01 03:35:10;;;;;;;;;20.00;20.00;16.10;99.90;;;;;;5062252;28;11448;-59
2021/12/01 03:37:43;;;;;;;;;17.75;16.25;16.10;99.90;;;;;;5074671;28;11509;-53
2021/12/01 03:40:14;;;;;;;;;17.50;15.75;16.00;99.90;;;;;;5061126;28;11505;-59
2021/12/01 03:42:45;;;;;;;;;15.75;15.75;16.10;99.90;;;;;;5056910;28;11666;-60
2021/12/01 03:45:17;;;;;;;;;18.00;18.00;16.00;99.90;;;;;;5056665;28;11508;-60
2021/12/01 03:47:48;;;;;;;;;17.75;17.75;16.00;99.90;;;;;;5057830;28;11488;-60
2021/12/01 03:50:19;;;;;;;;;17.25;15.75;16.00;99.90;;;;;;5059596;28;11510;-60
2021/12/01 03:52:52;;;;;;;;;17.25;17.25;15.90;99.90;;;;;;5059345;28;11530;-60
2021/12/01 03:55:23;;;;;;;;;18.00;18.00;15.90;99.90;;;;;;5058609;28;11589;-56
2021/12/01 03:57:54;;;;;;;;;18.50;17.75;15.80;99.90;;;;;;5056964;28;11567;-55
2021/12/01 04:00:25;;;;;;;;;15.75;15.75;15.80;99.90;;;;;;5058317;28;11470;-60
2021/12/01 04:02:57;;;;;;;;;18.25;18.25;15.80;99.90;;;;;;5056856;28;11495;-61
2021/12/01 04:05:28;;;;;;;;;21.25;19.50;15.80;99.90;;;;;;5062090;28;11504;-61
2021/12/01 04:08:01;;;;;;;;;20.25;20.25;15.70;99.90;;;;;;5052451;28;11509;-58
2021/12/01 04:10:33;;;;;;;;;13.75;12.50;15.70;99.90;;;;;;5061893;28;11452;-57
2021/12/01 04:13:03;;;;;;;;;16.00;16.00;15.70;99.90;;;;;;5059212;28;11509;-54
2021/12/01 04:15:34;;;;;;;;;19.75;19.50;15.70;99.90;;;;;;5061058;28;11685;-55
2021/12/01 04:18:05;;;;;;;;;16.25;16.25;15.60;99.90;;;;;;5056784;28;11685;-56
2021/12/01 04:20:35;;;;;;;;;16.25;16.25;15.70;99.90;;;;;;5059476;28;12284;-60
2021/12/01 04:23:06;;;;;;;;;19.00;19.00;15.60;99.90;;;;;;5064474;28;11527;-58
2021/12/01 04:25:37;;;;;;;;;20.00;20.00;15.60;99.90;;;;;;5057443;28;12307;-54
2021/12/01 04:28:07;;;;;;;;;20.75;20.75;15.60;99.90;;;;;;5063399;28;11492;-56
2021/12/01 04:30:38;;;;;;;;;17.75;17.75;15.50;99.90;;;;;;5058735;28;11486;-60
2021/12/01 04:33:11;;;;;;;;;18.50;18.50;15.50;99.90;;;;;;5056736;28;11488;-59
2021/12/01 04:35:41;;;;;;;;;19.00;19.00;15.50;99.90;;;;;;5056118;28;11483;-56
2021/12/01 04:38:12;;;;;;;;;21.50;20.75;15.50;99.90;;;;;;5059496;28;11471;-56
2021/12/01 04:40:43;;;;;;;;;20.25;19.00;15.50;99.90;;;;;;5054523;28;11620;-56
2021/12/01 04:43:14;;;;;;;;;20.00;20.00;15.50;99.90;;;;;;5060965;28;11601;-56
2021/12/01 04:45:48;;;;;;;;;19.75;19.75;15.40;99.90;;;;;;5057204;28;11773;-60
2021/12/01 04:48:18;;;;;;;;;21.25;21.25;15.40;99.90;;;;;;5062465;28;11589;-58
2021/12/01 04:50:47;;;;;;;;;23.75;22.25;15.40;99.90;;;;;;5061058;28;11716;-56
2021/12/01 04:53:18;;;;;;;;;20.00;20.00;15.40;99.90;;;;;;5056494;28;11612;-56
2021/12/01 04:55:49;;;;;;;;;18.75;18.75;15.40;99.90;;;;;;5055900;28;11507;-58
2021/12/01 04:58:20;;;;;;;;;22.00;20.50;15.40;99.90;;;;;;5057794;28;11639;-58
2021/12/01 05:00:51;;;;;;;;;27.75;27.75;15.40;99.90;;;;;;5060114;28;11525;-56
2021/12/01 05:03:23;;;;;;;;;25.75;25.75;15.30;99.90;;;;;;5062412;28;11535;-54
2021/12/01 05:05:56;;;;;;;;;23.50;23.50;15.30;99.90;;;;;;5061068;28;11522;-57
2021/12/01 05:08:26;;;;;;;;;29.25;26.75;15.30;99.90;;;;;;5060410;28;11735;-55
2021/12/01 05:10:56;;;;;;;;;33.75;32.00;15.20;99.90;;;;;;5058694;28;11576;-58
2021/12/01 05:13:27;;;;;;;;;31.00;30.75;15.10;99.90;;;;;;5076529;28;11598;-60
2021/12/01 05:15:58;;;;;;;;;22.75;22.75;15.10;99.90;;;;;;5064622;28;12943;-57
2021/12/01 05:18:29;;;;;;;;;28.50;26.75;15.10;99.90;;;;;;5058496;28;11743;-55
2021/12/01 05:21:00;;;;;;;;;23.25;22.50;15.10;99.90;;;;;;5059528;28;11580;-55
2021/12/01 05:23:33;;;;;;;;;27.25;27.25;15.10;99.90;;;;;;5074280;28;12537;-55
2021/12/01 05:26:07;;;;;;;;;26.75;25.25;15.10;99.90;;;;;;5064781;28;11589;-56
2021/12/01 05:28:40;;;;;;;;;30.25;27.75;15.10;99.90;;;;;;5065737;28;11556;-56
2021/12/01 05:31:10;;;;;;;;;26.00;26.00;15.00;99.90;;;;;;5061837;28;11577;-56
2021/12/01 05:33:41;;;;;;;;;27.50;27.50;15.00;99.90;;;;;;5060707;28;12304;-54
2021/12/01 05:36:13;;;;;;;;;33.00;30.75;15.00;99.90;;;;;;5062441;28;11564;-55
2021/12/01 05:38:45;;;;;;;;;26.75;26.75;14.90;99.90;;;;;;5073306;28;11580;-56
2021/12/01 05:41:15;;;;;;;;;24.00;24.00;14.90;99.90;;;;;;5063387;28;11615;-55
2021/12/01 05:43:46;;;;;;;;;30.50;28.50;14.90;99.90;;;;;;5059855;28;11671;-56
2021/12/01 05:46:17;;;;;;;;;20.25;20.25;15.00;99.90;;;;;;5060440;28;11544;-55
2021/12/01 05:48:51;;;;;;;;;29.75;29.50;14.90;99.90;;;;;;5062624;28;11538;-56
2021/12/01 05:51:22;;;;;;;;;26.00;25.00;14.90;99.90;;;;;;5059573;28;11591;-56
2021/12/01 05:53:53;;;;;;;;;29.00;27.75;14.80;99.90;;;;;;5064473;28;11605;-56
2021/12/01 05:56:24;;;;;;;;;25.25;24.50;14.70;99.90;;;;;;5056395;28;11565;-55
2021/12/01 05:58:55;;;;;;;;;25.50;25.50;14.70;99.90;;;;;;5063604;28;12275;-56
2021/12/01 06:01:25;;;;;;;;;30.75;27.75;14.70;99.90;;;;;;5060485;28;11686;-55
2021/12/01 06:03:58;;;;;;;;;27.75;24.75;14.60;99.90;;;;;;5061755;28;11563;-56
2021/12/01 06:06:30;;;;;;;;;27.00;26.25;14.60;99.90;;;;;;5065232;28;12324;-55
2021/12/01 06:09:01;;;;;;;;;26.50;26.50;14.60;99.90;;;;;;5065663;28;11597;-54
2021/12/01 06:11:32;;;;;;;;;23.25;23.25;14.60;99.90;;;;;;5059728;28;11547;-59
2021/12/01 06:14:03;;;;;;;;;23.50;23.50;14.60;99.90;;;;;;5061667;28;11596;-59
2021/12/01 06:16:33;;;;;;;;;22.00;21.75;14.60;99.90;;;;;;5062421;28;11553;-57
2021/12/01 06:19:05;;;;;;;;;24.25;24.25;14.60;99.90;;;;;;5061072;28;11587;-56
2021/12/01 06:21:37;;;;;;;;;21.50;21.50;14.70;99.90;;;;;;5060316;28;11540;-56
2021/12/01 06:24:08;;;;;;;;;16.00;16.00;14.50;99.90;;;;;;5063458;28;11555;-57
2021/12/01 06:26:40;;;;;;;;;24.00;24.00;14.50;99.90;;;;;;5065442;28;12260;-58
2021/12/01 06:29:10;;;;;;;;;27.00;27.00;14.40;99.90;;;;;;5064501;28;11546;-56
2021/12/01 06:31:41;;;;;;;;;28.00;25.50;14.40;99.90;;;;;;5060982;28;11559;-57
2021/12/01 06:34:12;;;;;;;;;23.75;22.25;14.40;99.90;;;;;;5060510;28;11561;-56
2021/12/01 06:36:43;;;;;;;;;23.25;20.75;14.30;99.90;;;;;;5062207;28;11562;-56
2021/12/01 06:39:16;;;;;;;;;29.50;26.75;14.30;99.90;;;;;;5065164;28;11554;-56
2021/12/01 06:41:46;;;;;;;;;20.75;20.75;14.40;99.90;;;;;;5070507;28;11571;-60
2021/12/01 06:44:17;;;;;;;;;22.00;22.00;14.40;99.90;;;;;;5057947;28;12541;-60
2021/12/01 06:46:48;;;;;;;;;21.50;21.50;14.30;99.90;;;;;;5062015;28;11532;-60
2021/12/01 06:49:18;;;;;;;;;14.75;13.25;14.30;99.90;;;;;;5058919;28;12299;-60
2021/12/01 06:51:49;;;;;;;;;19.25;19.25;14.20;99.90;;;;;;5056886;28;11579;-57
2021/12/01 06:54:19;;;;;;;;;19.25;19.25;14.30;99.90;;;;;;5058383;28;11688;-57
2021/12/01 06:56:50;;;;;;;;;21.25;20.00;14.20;99.90;;;;;;5057281;28;12380;-59
2021/12/01 06:59:20;;;;;;;;;21.50;20.75;14.20;99.90;;;;;;5057491;28;11634;-59
2021/12/01 07:01:50;;;;;;;;;18.25;17.50;14.20;99.90;;;;;;5058526;28;11715;-57
2021/12/01 07:04:22;;;;;;;;;20.25;20.25;14.10;99.90;;;;;;5055582;28;11562;-56
2021/12/01 07:06:52;;;;;;;;;21.50;21.50;14.10;99.90;;;;;;5060520;28;11690;-59
2021/12/01 07:09:24;;;;;;;;;20.75;20.75;14.10;99.90;;;;;;5057327;28;11562;-59
2021/12/01 07:11:54;;;;;;;;;16.50;16.50;14.10;99.90;;;;;;5059247;28;11607;-56
2021/12/01 07:14:24;;;;;;;;;13.50;12.00;14.00;99.90;;;;;;5062684;28;11530;-56
2021/12/01 07:16:55;;;;;;;;;15.50;15.50;14.10;99.90;;;;;;5062485;28;11557;-58
2021/12/01 07:19:26;;;;;;;;;16.75;16.75;14.10;99.90;;;;;;5060223;28;11584;-55
2021/12/01 07:21:58;;;;;;;;;11.25;11.25;14.10;99.90;;;;;;5061122;28;11598;-53
2021/12/01 07:24:29;;;;;;;;;18.00;18.00;14.10;99.90;;;;;;5059796;28;11586;-54
2021/12/01 07:27:00;;;;;;;;;13.50;13.50;14.10;99.90;;;;;;5053602;28;11574;-56
2021/12/01 07:29:30;;;;;;;;;16.25;16.25;14.00;99.90;;;;;;5066480;28;11696;-57
2021/12/01 07:32:02;;;;;;;;;19.75;19.75;14.00;99.90;;;;;;5059656;28;11538;-56
2021/12/01 07:34:41;;;;;;;;;16.50;16.50;14.00;99.90;;;;;;5064949;28;11837;-55
2021/12/01 07:37:17;;;;;;;;;17.25;17.25;14.00;99.90;;;;;;5063815;28;11507;-56
2021/12/01 07:39:48;;;;;;;;;18.50;18.50;13.90;99.90;;;;;;5057064;28;11583;-57
2021/12/01 07:42:18;;;;;;;;;19.25;17.75;13.90;99.90;;;;;;5060289;28;11552;-58
2021/12/01 07:44:51;;;;;;;;;3.00;1.00;14.00;99.90;;;;;;5065208;28;11538;-57
2021/12/01 07:47:22;;;;;;;;;13.25;13.25;13.90;99.90;;;;;;5070966;28;11497;-58
2021/12/01 07:49:53;;;;;;;;;18.00;16.25;13.90;99.90;;;;;;5069128;28;11631;-57
2021/12/01 07:52:24;;;;;;;;;18.25;18.25;13.90;99.90;;;;;;5061214;28;11741;-57
2021/12/01 07:54:55;;;;;;;;;19.00;19.00;13.80;99.90;;;;;;5056425;28;11564;-57
2021/12/01 07:57:25;;;;;;;;;19.00;19.00;13.70;99.90;;;;;;5064302;28;12350;-57
2021/12/01 07:59:56;;;;;;;;;16.25;16.25;13.80;99.90;;;;;;5063986;27;11564;-57
2021/12/01 08:02:27;;;;;;;;;15.25;15.25;13.80;99.90;;;;;;5071507;28;11571;-59
2021/12/01 08:04:59;;;;;;;;;19.50;19.50;13.80;99.90;;;;;;5060402;28;11580;-59
2021/12/01 08:07:34;;;;;;;;;16.00;16.00;13.70;99.90;;;;;;5061254;28;11596;-56
2021/12/01 08:10:07;;;;;;;;;14.75;14.75;13.70;99.90;;;;;;5058864;28;11804;-56
2021/12/01 08:12:38;;;;;;;;;16.50;16.50;13.70;99.90;;;;;;5060135;28;12313;-57
2021/12/01 08:15:10;;;;;;;;;17.50;17.50;13.80;99.90;;;;;;5062110;28;11585;-57
2021/12/01 08:17:41;;;;;;;;;14.50;14.50;13.70;99.90;;;;;;5072143;28;11582;-58
2021/12/01 08:20:12;;;;;;;;;18.50;18.50;13.70;99.90;;;;;;5062344;28;11684;-58
2021/12/01 08:22:43;;;;;;;;;21.25;21.00;13.70;99.90;;;;;;5067632;28;11572;-57
2021/12/01 08:25:15;;;;;;;;;22.00;19.50;13.70;99.90;;;;;;5057216;28;11588;-56
2021/12/01 08:27:46;;;;;;;;;21.25;21.25;13.70;99.90;;;;;;5065684;28;11573;-57
2021/12/01 08:30:16;;;;;;;;;17.25;17.25;13.70;99.90;;;;;;5062498;28;11576;-56
2021/12/01 08:32:46;;;;;;;;;19.25;19.25;13.60;99.90;;;;;;5073895;28;11526;-58
2021/12/01 08:35:17;;;;;;;;;22.75;21.00;13.60;99.90;;;;;;5061733;28;11580;-57
2021/12/01 08:37:49;;;;;;;;;20.00;20.00;13.60;99.90;;;;;;5063409;28;11807;-57
2021/12/01 08:40:19;;;;;;;;;15.75;13.50;13.50;99.90;;;;;;5056720;28;11686;-57
2021/12/01 08:42:51;;;;;;;;;21.75;20.25;13.60;99.90;;;;;;5073888;28;11491;-57
2021/12/01 08:45:21;;;;;;;;;21.75;20.00;13.60;99.90;;;;;;5065390;28;11726;-57
2021/12/01 08:47:50;;;;;;;;;17.50;17.50;13.50;99.90;;;;;;5076283;28;12265;-56
2021/12/01 08:50:21;;;;;;;;;10.25;10.25;13.40;99.90;;;;;;5058177;28;11603;-56
2021/12/01 08:52:51;;;;;;;;;19.50;19.50;13.50;99.90;;;;;;5063588;28;11510;-56
2021/12/01 08:55:23;;;;;;;;;12.00;12.00;13.50;99.90;;;;;;5056400;28;11552;-58
2021/12/01 08:58:13;;;;;;;;;20.00;19.25;13.50;99.90;;;;;;5064910;28;11742;-57
2021/12/01 09:00:45;;;;;;;;;16.00;15.00;13.50;99.90;;;;;;5062714;28;12244;-57
2021/12/01 09:03:18;;;;;;;;;17.50;17.50;13.40;99.90;;;;;;5072863;28;11584;-56
2021/12/01 09:05:50;;;;;;;;;17.75;16.50;13.40;99.90;;;;;;5064582;28;11571;-57
2021/12/01 09:08:22;;;;;;;;;17.00;17.00;13.40;99.90;;;;;;5061006;28;11582;-57
2021/12/01 09:10:59;;;;;;;;;17.00;17.00;13.40;99.90;;;;;;5067264;28;11552;-57
2021/12/01 09:13:30;;;;;;;;;16.25;16.25;13.40;99.90;;;;;;5066986;27;11562;-57
2021/12/01 09:16:02;;;;;;;;;18.25;18.25;13.30;99.90;;;;;;5064271;28;11539;-56
2021/12/01 09:18:34;;;;;;;;;22.00;19.50;13.30;99.90;;;;;;5067220;28;11585;-57
2021/12/01 09:21:05;;;;;;;;;17.25;17.25;13.30;99.90;;;;;;5064697;28;12329;-57
2021/12/01 09:23:36;;;;;;;;;19.25;18.00;13.30;99.90;;;;;;5068079;28;11583;-57
2021/12/01 09:26:09;;;;;;;;;18.00;18.00;13.20;99.90;;;;;;5063540;28;12349;-57
2021/12/01 09:28:40;;;;;;;;;20.25;18.75;13.20;99.90;;;;;;5065468;28;11626;-57
2021/12/01 09:31:10;;;;;;;;;17.50;17.50;13.20;99.90;;;;;;5062468;28;11588;-57
2021/12/01 09:33:40;;;;;;;;;20.75;20.75;13.20;99.90;;;;;;5069522;28;11679;-57
2021/12/01 09:36:11;;;;;;;;;19.00;19.00;13.20;99.90;;;;;;5059180;28;11694;-56
2021/12/01 09:38:43;;;;;;;;;23.50;23.00;13.20;99.90;;;;;;5063109;28;11545;-56
2021/12/01 09:41:13;;;;;;;;;16.75;16.75;13.20;99.90;;;;;;5060401;28;11574;-56
2021/12/01 09:43:46;;;;;;;;;14.50;14.50;13.20;99.90;;;;;;5066938;28;11668;-56
2021/12/01 09:46:17;;;;;;;;;17.75;17.75;13.20;99.90;;;;;;5063056;28;11530;-56
2021/12/01 09:48:48;;;;;;;;;19.75;19.75;13.20;99.90;;;;;;5057607;28;12266;-56
2021/12/01 09:51:20;;;;;;;;;22.00;22.00;13.20;99.90;;;;;;5065569;28;11562;-56
2021/12/01 09:53:52;;;;;;;;;20.75;20.75;13.20;99.90;;;;;;5060423;28;11566;-57
2021/12/01 09:56:24;;;;;;;;;16.50;14.75;13.10;99.90;;;;;;5061930;28;11545;-57
2021/12/01 09:58:55;;;;;;;;;21.00;19.25;13.00;99.90;;;;;;5068155;28;11565;-57
2021/12/01 10:01:28;;;;;;;;;23.50;22.50;13.10;99.90;;;;;;5063396;28;11560;-56
2021/12/01 10:03:59;;;;;;;;;23.75;22.50;13.10;99.90;;;;;;5060906;28;13240;-57
2021/12/01 10:06:30;;;;;;;;;20.50;19.00;13.10;99.90;;;;;;5063611;28;12711;-57
2021/12/01 10:09:05;;;;;;;;;20.50;20.50;13.20;99.90;;;;;;5054967;28;11719;-56
2021/12/01 10:11:43;;;;;;;;;20.50;19.00;13.10;99.90;;;;;;5058337;28;11703;-57
2021/12/01 10:14:20;;;;;;;;;20.50;20.50;13.00;99.90;;;;;;5063250;28;11564;-57
2021/12/01 10:16:55;;;;;;;;;22.25;22.25;13.00;99.90;;;;;;5061007;28;12373;-57
2021/12/01 10:19:28;;;;;;;;;19.50;19.50;13.00;99.90;;;;;;5059619;28;13344;-57
2021/12/01 10:21:59;;;;;;;;;19.25;19.25;12.90;99.90;;;;;;5066678;28;11550;-56
2021/12/01 10:24:35;;;;;;;;;19.75;19.75;12.90;99.90;;;;;;5066115;28;11668;-56
2021/12/01 10:27:11;;;;;;;;;19.25;19.25;13.00;99.90;;;;;;5065552;28;11658;-58
2021/12/01 10:29:52;;;;;;;;;17.25;17.25;12.90;99.90;;;;;;5062783;28;11521;-56
2021/12/01 10:32:22;;;;;;;;;19.50;19.50;12.90;99.90;;;;;;5060902;28;11530;-56
2021/12/01 10:34:57;;;;;;;;;17.75;16.75;13.00;99.90;;;;;;5063701;28;11558;-56
2021/12/01 10:37:34;;;;;;;;;19.00;19.00;12.80;99.90;;;;;;5058759;28;12282;-57
2021/12/01 10:40:24;;;;;;;;;20.25;20.25;12.80;99.90;;;;;;5059305;28;11512;-57
2021/12/01 10:43:02;;;;;;;;;18.50;17.00;12.80;99.90;;;;;;5061817;28;11537;-57
2021/12/01 10:45:39;;;;;;;;;17.00;17.00;12.80;99.90;;;;;;5055431;28;11552;-57
2021/12/01 10:48:20;;;;;;;;;17.00;17.00;12.80;99.90;;;;;;5066284;28;11563;-57
2021/12/01 10:50:51;;;;;;;;;17.25;17.25;12.80;99.90;;;;;;5060445;27;11580;-56
2021/12/01 10:53:26;;;;;;;;;20.00;18.75;12.80;99.90;;;;;;5059385;28;12277;-56
2021/12/01 10:56:01;;;;;;;;;16.00;16.00;12.70;99.90;;;;;;5063982;28;12603;-56
2021/12/01 10:58:38;;;;;;;;;18.25;18.25;12.70;99.90;;;;;;5061406;28;11531;-57
2021/12/01 11:01:26;;;;;;;;;20.00;20.00;12.70;99.90;;;;;;5053456;28;11562;-57
2021/12/01 11:03:56;;;;;;;;;16.00;16.00;12.70;99.90;;;;;;5060845;28;11566;-57
2021/12/01 11:06:32;;;;;;;;;15.75;15.75;12.70;99.90;;;;;;5066024;28;12308;-57
2021/12/01 11:09:03;;;;;;;;;16.75;16.75;12.70;99.90;;;;;;5065637;28;11580;-57
2021/12/01 11:11:44;;;;;;;;;17.00;16.00;12.70;99.90;;;;;;5059307;28;11571;-56
2021/12/01 11:14:42;;;;;;;;;15.75;14.50;12.70;99.90;;;;;;5068005;28;11576;-56
2021/12/01 11:17:13;;;;;;;;;18.00;18.00;12.60;99.90;;;;;;5061881;28;11567;-57
2021/12/01 11:19:44;;;;;;;;;19.00;19.00;12.50;99.90;;;;;;5057074;28;12340;-56
2021/12/01 11:22:34;;;;;;;;;18.00;16.75;12.50;99.90;;;;;;5067500;28;11510;-57
2021/12/01 11:25:25;;;;;;;;;18.00;18.00;12.60;99.90;;;;;;5061241;28;11518;-57
2021/12/01 11:27:55;;;;;;;;;21.00;21.00;12.60;99.90;;;;;;5063465;28;11607;-57
2021/12/01 11:30:24;;;;;;;;;16.25;16.25;12.50;99.90;;;;;;5065570;28;11540;-57
2021/12/01 11:33:17;;;;;;;;;19.00;19.00;12.50;99.90;;;;;;5058537;28;12206;-57
2021/12/01 11:35:52;;;;;;;;;16.75;16.75;12.40;99.90;;;;;;5058144;28;12342;-57
2021/12/01 11:38:23;;;;;;;;;18.75;18.75;12.40;99.90;;;;;;5064807;28;11497;-57
2021/12/01 11:40:56;;;;;;;;;16.50;16.50;12.40;99.90;;;;;;5055600;28;11713;-57
2021/12/01 11:43:31;;;;;;;;;19.50;19.50;12.40;99.90;;;;;;5065608;28;11661;-57
2021/12/01 11:46:02;;;;;;;;;18.25;18.25;12.30;99.90;;;;;;5060375;28;12247;-57
2021/12/01 11:48:43;;;;;;;;;18.00;18.00;12.30;99.90;;;;;;5055996;28;11522;-57
2021/12/01 11:51:29;;;;;;;;;17.50;17.50;12.30;99.90;;;;;;5063340;28;11531;-57
2021/12/01 11:54:15;;;;;;;;;15.25;15.25;12.30;99.90;;;;;;5065822;28;11009;-57
2021/12/01 11:56:55;;;;;;;;;18.00;18.00;12.40;99.90;;;;;;5061359;28;12365;-56
2021/12/01 11:59:28;;;;;;;;;19.00;18.00;12.40;99.90;;;;;;5065955;28;11529;-57
2021/12/01 12:02:20;;;;;;;;;18.25;18.25;12.40;99.90;;;;;;5060406;28;11580;-57
2021/12/01 12:04:56;;;;;;;;;17.25;17.25;12.30;99.90;;;;;;5057755;28;11570;-56
2021/12/01 12:07:29;;;;;;;;;17.25;17.25;12.30;99.90;;;;;;5060816;28;11570;-57
2021/12/01 12:10:14;;;;;;;;;16.75;16.75;12.30;99.90;;;;;;5059401;28;11563;-57
2021/12/01 12:13:00;;;;;;;;;17.75;17.75;12.30;99.90;;;;;;5063156;28;12328;-57
2021/12/01 12:15:36;;;;;;;;;18.00;18.00;12.30;99.90;;;;;;5054517;28;11595;-57
2021/12/01 12:18:13;;;;;;;;;19.25;19.25;12.30;99.90;;;;;;5060015;28;11595;-57
2021/12/01 12:20:50;;;;;;;;;24.75;21.25;12.20;99.90;;;;;;5064103;28;11536;-56
2021/12/01 12:23:33;;;;;;;;;23.00;20.25;12.20;99.90;;;;;;5063413;28;11538;-56
2021/12/01 12:26:11;;;;;;;;;18.75;18.75;12.10;99.90;;;;;;5056830;28;11556;-56
2021/12/01 12:28:44;;;;;;;;;19.25;19.25;12.10;99.90;;;;;;5058324;28;11639;-56
2021/12/01 12:31:19;;;;;;;;;20.25;18.25;12.00;99.90;;;;;;5067844;28;11537;-57
2021/12/01 12:34:17;;;;;;;;;18.50;16.75;12.10;99.90;;;;;;5063372;28;11608;-57
2021/12/01 12:36:56;;;;;;;;;17.00;17.00;12.10;99.90;;;;;;5058174;28;11652;-57
2021/12/01 12:39:43;;;;;;;;;18.75;18.75;12.10;99.90;;;;;;5057341;28;12443;-57
2021/12/01 12:42:14;;;;;;;;;16.00;16.00;12.10;99.90;;;;;;5062045;28;12138;-57
2021/12/01 12:44:50;;;;;;;;;20.50;20.50;12.10;99.90;;;;;;5057193;28;11597;-57
2021/12/01 12:47:39;;;;;;;;;17.75;16.75;12.00;99.90;;;;;;5057147;28;11543;-57
2021/12/01 12:50:10;;;;;;;;;18.00;18.00;11.90;99.90;;;;;;5061826;28;11551;-57
2021/12/01 12:52:44;;;;;;;;;18.25;18.25;11.80;99.90;;;;;;5063151;28;11545;-57
2021/12/01 12:55:20;;;;;;;;;18.50;18.50;11.80;99.90;;;;;;5057528;28;11553;-57
2021/12/01 12:57:58;;;;;;;;;18.00;18.00;11.80;99.90;;;;;;5062170;28;11576;-57
2021/12/01 13:00:56;;;;;;;;;17.75;17.75;11.80;99.90;;;;;;5054868;28;11562;-57
2021/12/01 13:03:31;;;;;;;;;19.75;19.75;11.70;99.90;;;;;;5064454;28;11679;-57